sensor_id;sensor_type;location;lat;lon;timestamp;temperature;humidity
54190;DHT22;40340;53.208;6.582;2022-07-15T00:02:06;15.10;99.90
54190;DHT22;40340;53.208;6.582;2022-07-15T00:04:32;15.10;99.90
54190;DHT22;40340;53.208;6.582;2022-07-15T00:06:58;15.00;99.90
54190;DHT22;40340;53.208;6.582;2022-07-15T00:09:23;15.00;99.90
54190;DHT22;40340;53.208;6.582;2022-07-15T00:12:09;14.90;99.90
54190;DHT22;40340;53.208;6.582;2022-07-15T00:14:35;14.90;99.90
54190;DHT22;40340;53.208;6.582;2022-07-15T00:17:01;14.90;99.90
54190;DHT22;40340;53.208;6.582;2022-07-15T00:19:27;14.90;99.90
54190;DHT22;40340;53.208;6.582;2022-07-15T00:21:53;14.90;99.90
54190;DHT22;40340;53.208;6.582;2022-07-15T00:24:18;14.90;99.90
54190;DHT22;40340;53.208;6.582;2022-07-15T00:26:44;14.80;99.90
54190;DHT22;40340;53.208;6.582;2022-07-15T00:29:10;14.80;99.90
54190;DHT22;40340;53.208;6.582;2022-07-15T00:31:36;14.90;99.90
54190;DHT22;40340;53.208;6.582;2022-07-15T00:34:03;14.90;99.90
54190;DHT22;40340;53.208;6.582;2022-07-15T00:36:29;14.90;99.90
54190;DHT22;40340;53.208;6.582;2022-07-15T00:38:54;14.90;99.90
54190;DHT22;40340;53.208;6.582;2022-07-15T00:41:20;14.90;99.90
54190;DHT22;40340;53.208;6.582;2022-07-15T00:43:46;14.90;99.90
54190;DHT22;40340;53.208;6.582;2022-07-15T00:46:21;14.90;99.90
54190;DHT22;40340;53.208;6.582;2022-07-15T00:48:47;14.90;99.90
54190;DHT22;40340;53.208;6.582;2022-07-15T00:51:13;14.90;99.90
54190;DHT22;40340;53.208;6.582;2022-07-15T00:53:39;14.90;99.90
54190;DHT22;40340;53.208;6.582;2022-07-15T00:56:08;14.90;99.90
54190;DHT22;40340;53.208;6.582;2022-07-15T00:58:37;14.80;99.90
54190;DHT22;40340;53.208;6.582;2022-07-15T01:01:03;14.70;99.90
54190;DHT22;40340;53.208;6.582;2022-07-15T01:03:31;14.70;99.90
54190;DHT22;40340;53.208;6.582;2022-07-15T01:05:57;14.70;99.90
54190;DHT22;40340;53.208;6.582;2022-07-15T01:08:23;14.70;99.90
54190;DHT22;40340;53.208;6.582;2022-07-15T01:10:50;14.60;99.90
54190;DHT22;40340;53.208;6.582;2022-07-15T01:13:17;14.60;99.90
54190;DHT22;40340;53.208;6.582;2022-07-15T01:15:43;14.60;99.90
54190;DHT22;40340;53.208;6.582;2022-07-15T01:18:09;14.60;99.90
54190;DHT22;40340;53.208;6.582;2022-07-15T01:20:39;14.60;99.90
54190;DHT22;40340;53.208;6.582;2022-07-15T01:23:05;14.60;99.90
54190;DHT22;40340;53.208;6.582;2022-07-15T01:25:31;14.60;99.90
54190;DHT22;40340;53.208;6.582;2022-07-15T01:27:58;14.70;99.90
54190;DHT22;40340;53.208;6.582;2022-07-15T01:30:24;14.70;99.90
54190;DHT22;40340;53.208;6.582;2022-07-15T01:32:50;14.60;99.90
54190;DHT22;40340;53.208;6.582;2022-07-15T01:35:17;14.70;99.90
54190;DHT22;40340;53.208;6.582;2022-07-15T01:37:43;14.70;99.90
54190;DHT22;40340;53.208;6.582;2022-07-15T01:40:10;14.70;99.90
54190;DHT22;40340;53.208;6.582;2022-07-15T01:42:37;14.70;99.90
54190;DHT22;40340;53.208;6.582;2022-07-15T01:45:04;14.70;99.90
54190;DHT22;40340;53.208;6.582;2022-07-15T01:47:31;14.70;99.90
54190;DHT22;40340;53.208;6.582;2022-07-15T01:49:58;14.60;99.90
54190;DHT22;40340;53.208;6.582;2022-07-15T01:52:23;14.70;99.90
54190;DHT22;40340;53.208;6.582;2022-07-15T01:54:50;14.70;99.90
54190;DHT22;40340;53.208;6.582;2022-07-15T01:57:16;14.70;99.90
54190;DHT22;40340;53.208;6.582;2022-07-15T01:59:42;14.60;99.90
54190;DHT22;40340;53.208;6.582;2022-07-15T02:02:08;14.60;99.90
54190;DHT22;40340;53.208;6.582;2022-07-15T02:04:33;14.50;99.90
54190;DHT22;40340;53.208;6.582;2022-07-15T02:06:59;14.60;99.90
54190;DHT22;40340;53.208;6.582;2022-07-15T02:09:25;14.50;99.90
54190;DHT22;40340;53.208;6.582;2022-07-15T02:11:50;14.50;99.90
54190;DHT22;40340;53.208;6.582;2022-07-15T02:14:16;14.40;99.90
54190;DHT22;40340;53.208;6.582;2022-07-15T02:16:41;14.40;99.90
54190;DHT22;40340;53.208;6.582;2022-07-15T02:19:07;14.30;99.90
54190;DHT22;40340;53.208;6.582;2022-07-15T02:21:34;14.30;99.90
54190;DHT22;40340;53.208;6.582;2022-07-15T02:24:00;14.40;99.90
54190;DHT22;40340;53.208;6.582;2022-07-15T02:26:26;14.30;99.90
54190;DHT22;40340;53.208;6.582;2022-07-15T02:28:52;14.20;99.90
54190;DHT22;40340;53.208;6.582;2022-07-15T02:31:18;14.20;99.90
54190;DHT22;40340;53.208;6.582;2022-07-15T02:33:43;14.20;99.90
54190;DHT22;40340;53.208;6.582;2022-07-15T02:36:09;14.20;99.90
54190;DHT22;40340;53.208;6.582;2022-07-15T02:38:35;14.20;99.90
54190;DHT22;40340;53.208;6.582;2022-07-15T02:41:01;14.10;99.90
54190;DHT22;40340;53.208;6.582;2022-07-15T02:43:28;14.10;99.90
54190;DHT22;40340;53.208;6.582;2022-07-15T02:45:54;14.10;99.90
54190;DHT22;40340;53.208;6.582;2022-07-15T02:48:21;14.00;99.90
54190;DHT22;40340;53.208;6.582;2022-07-15T02:50:47;14.00;99.90
54190;DHT22;40340;53.208;6.582;2022-07-15T02:53:13;14.00;99.90
54190;DHT22;40340;53.208;6.582;2022-07-15T02:55:39;14.00;99.90
54190;DHT22;40340;53.208;6.582;2022-07-15T02:58:05;13.90;99.90
54190;DHT22;40340;53.208;6.582;2022-07-15T03:00:30;13.90;99.90
54190;DHT22;40340;53.208;6.582;2022-07-15T03:02:58;13.90;99.90
54190;DHT22;40340;53.208;6.582;2022-07-15T03:05:24;13.80;99.90
54190;DHT22;40340;53.208;6.582;2022-07-15T03:07:49;13.80;99.90
54190;DHT22;40340;53.208;6.582;2022-07-15T03:10:16;13.80;99.90
54190;DHT22;40340;53.208;6.582;2022-07-15T03:12:42;13.80;99.90
54190;DHT22;40340;53.208;6.582;2022-07-15T03:15:08;13.70;99.90
54190;DHT22;40340;53.208;6.582;2022-07-15T03:17:34;13.70;99.90
54190;DHT22;40340;53.208;6.582;2022-07-15T03:20:00;13.70;99.90
54190;DHT22;40340;53.208;6.582;2022-07-15T03:22:26;13.60;99.90
54190;DHT22;40340;53.208;6.582;2022-07-15T03:24:53;13.60;99.90
54190;DHT22;40340;53.208;6.582;2022-07-15T03:27:19;13.60;99.90
54190;DHT22;40340;53.208;6.582;2022-07-15T03:29:45;13.60;99.90
54190;DHT22;40340;53.208;6.582;2022-07-15T03:32:10;13.60;99.90
54190;DHT22;40340;53.208;6.582;2022-07-15T03:34:39;13.60;99.90
54190;DHT22;40340;53.208;6.582;2022-07-15T03:37:05;13.50;99.90
54190;DHT22;40340;53.208;6.582;2022-07-15T03:39:30;13.50;99.90
54190;DHT22;40340;53.208;6.582;2022-07-15T03:41:56;13.60;99.90
54190;DHT22;40340;53.208;6.582;2022-07-15T03:44:21;13.60;99.90
54190;DHT22;40340;53.208;6.582;2022-07-15T03:46:47;13.60;99.90
54190;DHT22;40340;53.208;6.582;2022-07-15T03:49:14;13.60;99.90
54190;DHT22;40340;53.208;6.582;2022-07-15T03:51:40;13.70;99.90
54190;DHT22;40340;53.208;6.582;2022-07-15T03:54:06;13.70;99.90
54190;DHT22;40340;53.208;6.582;2022-07-15T03:56:34;13.70;99.90
54190;DHT22;40340;53.208;6.582;2022-07-15T03:59:00;13.70;99.90
54190;DHT22;40340;53.208;6.582;2022-07-15T04:01:26;13.80;99.90
54190;DHT22;40340;53.208;6.582;2022-07-15T04:03:52;13.70;99.90
54190;DHT22;40340;53.208;6.582;2022-07-15T04:06:20;13.70;99.90
54190;DHT22;40340;53.208;6.582;2022-07-15T04:08:46;13.80;99.90
54190;DHT22;40340;53.208;6.582;2022-07-15T04:11:13;13.70;99.90
54190;DHT22;40340;53.208;6.582;2022-07-15T04:13:38;13.70;99.90
54190;DHT22;40340;53.208;6.582;2022-07-15T04:16:06;13.70;99.90
54190;DHT22;40340;53.208;6.582;2022-07-15T04:18:32;13.70;99.90
54190;DHT22;40340;53.208;6.582;2022-07-15T04:20:58;13.70;99.90
54190;DHT22;40340;53.208;6.582;2022-07-15T04:23:24;13.70;99.90
54190;DHT22;40340;53.208;6.582;2022-07-15T04:25:51;13.60;99.90
54190;DHT22;40340;53.208;6.582;2022-07-15T04:28:21;13.60;99.90
54190;DHT22;40340;53.208;6.582;2022-07-15T04:30:47;13.70;99.90
54190;DHT22;40340;53.208;6.582;2022-07-15T04:33:12;13.70;99.90
54190;DHT22;40340;53.208;6.582;2022-07-15T04:35:38;13.60;99.90
54190;DHT22;40340;53.208;6.582;2022-07-15T04:38:05;13.70;99.90
54190;DHT22;40340;53.208;6.582;2022-07-15T04:40:31;13.70;99.90
54190;DHT22;40340;53.208;6.582;2022-07-15T04:42:59;13.80;99.90
54190;DHT22;40340;53.208;6.582;2022-07-15T04:45:28;13.80;99.90
54190;DHT22;40340;53.208;6.582;2022-07-15T04:47:53;13.90;99.90
54190;DHT22;40340;53.208;6.582;2022-07-15T04:50:19;13.90;99.90
54190;DHT22;40340;53.208;6.582;2022-07-15T04:53:03;13.90;99.90
54190;DHT22;40340;53.208;6.582;2022-07-15T04:55:30;14.00;99.90
54190;DHT22;40340;53.208;6.582;2022-07-15T04:57:56;14.10;99.90
54190;DHT22;40340;53.208;6.582;2022-07-15T05:00:21;14.10;99.90
54190;DHT22;40340;53.208;6.582;2022-07-15T05:02:47;14.20;99.90
54190;DHT22;40340;53.208;6.582;2022-07-15T05:05:13;14.40;99.90
54190;DHT22;40340;53.208;6.582;2022-07-15T05:07:38;14.30;99.90
54190;DHT22;40340;53.208;6.582;2022-07-15T05:10:05;14.40;99.90
54190;DHT22;40340;53.208;6.582;2022-07-15T05:12:31;14.50;99.90
54190;DHT22;40340;53.208;6.582;2022-07-15T05:14:57;14.40;99.90
54190;DHT22;40340;53.208;6.582;2022-07-15T05:17:22;14.50;99.90
54190;DHT22;40340;53.208;6.582;2022-07-15T05:19:48;14.50;99.90
54190;DHT22;40340;53.208;6.582;2022-07-15T05:22:13;14.50;99.90
54190;DHT22;40340;53.208;6.582;2022-07-15T05:24:41;14.60;99.90
54190;DHT22;40340;53.208;6.582;2022-07-15T05:27:07;14.60;99.90
54190;DHT22;40340;53.208;6.582;2022-07-15T05:29:32;14.60;99.90
54190;DHT22;40340;53.208;6.582;2022-07-15T05:31:58;14.60;99.90
54190;DHT22;40340;53.208;6.582;2022-07-15T05:34:24;14.60;99.90
54190;DHT22;40340;53.208;6.582;2022-07-15T05:36:49;14.60;99.90
54190;DHT22;40340;53.208;6.582;2022-07-15T05:39:15;14.70;99.90
54190;DHT22;40340;53.208;6.582;2022-07-15T05:41:41;14.70;99.90
54190;DHT22;40340;53.208;6.582;2022-07-15T05:44:06;14.70;99.90
54190;DHT22;40340;53.208;6.582;2022-07-15T05:46:32;14.80;99.90
54190;DHT22;40340;53.208;6.582;2022-07-15T05:48:58;14.90;99.90
54190;DHT22;40340;53.208;6.582;2022-07-15T05:51:23;15.00;99.90
54190;DHT22;40340;53.208;6.582;2022-07-15T05:53:49;15.10;99.90
54190;DHT22;40340;53.208;6.582;2022-07-15T05:56:14;15.10;99.90
54190;DHT22;40340;53.208;6.582;2022-07-15T05:58:40;15.10;99.90
54190;DHT22;40340;53.208;6.582;2022-07-15T06:01:06;15.10;99.90
54190;DHT22;40340;53.208;6.582;2022-07-15T06:03:31;15.20;99.90
54190;DHT22;40340;53.208;6.582;2022-07-15T06:05:58;15.20;99.90
54190;DHT22;40340;53.208;6.582;2022-07-15T06:08:23;15.20;99.90
54190;DHT22;40340;53.208;6.582;2022-07-15T06:10:49;15.30;99.90
54190;DHT22;40340;53.208;6.582;2022-07-15T06:13:15;15.40;99.90
54190;DHT22;40340;53.208;6.582;2022-07-15T06:15:41;15.40;99.90
54190;DHT22;40340;53.208;6.582;2022-07-15T06:18:07;15.40;99.90
54190;DHT22;40340;53.208;6.582;2022-07-15T06:20:33;15.30;99.90
54190;DHT22;40340;53.208;6.582;2022-07-15T06:22:58;15.30;99.90
54190;DHT22;40340;53.208;6.582;2022-07-15T06:25:24;15.20;99.90
54190;DHT22;40340;53.208;6.582;2022-07-15T06:27:50;15.20;99.90
54190;DHT22;40340;53.208;6.582;2022-07-15T06:30:15;15.00;99.90
54190;DHT22;40340;53.208;6.582;2022-07-15T06:32:41;15.10;99.90
54190;DHT22;40340;53.208;6.582;2022-07-15T06:35:07;15.00;99.90
54190;DHT22;40340;53.208;6.582;2022-07-15T06:37:33;15.00;99.90
54190;DHT22;40340;53.208;6.582;2022-07-15T06:39:59;15.10;99.90
54190;DHT22;40340;53.208;6.582;2022-07-15T06:42:25;15.20;99.90
54190;DHT22;40340;53.208;6.582;2022-07-15T06:44:50;15.20;99.90
54190;DHT22;40340;53.208;6.582;2022-07-15T06:47:16;15.30;99.90
54190;DHT22;40340;53.208;6.582;2022-07-15T06:49:42;15.30;99.90
54190;DHT22;40340;53.208;6.582;2022-07-15T06:52:08;15.30;99.90
54190;DHT22;40340;53.208;6.582;2022-07-15T06:54:33;15.30;99.90
54190;DHT22;40340;53.208;6.582;2022-07-15T06:56:59;15.40;99.90
54190;DHT22;40340;53.208;6.582;2022-07-15T06:59:27;15.40;99.90
54190;DHT22;40340;53.208;6.582;2022-07-15T07:01:53;15.40;99.90
54190;DHT22;40340;53.208;6.582;2022-07-15T07:04:19;15.50;99.90
54190;DHT22;40340;53.208;6.582;2022-07-15T07:06:45;15.50;99.90
54190;DHT22;40340;53.208;6.582;2022-07-15T07:09:11;15.50;99.90
54190;DHT22;40340;53.208;6.582;2022-07-15T07:11:38;15.60;99.90
54190;DHT22;40340;53.208;6.582;2022-07-15T07:14:05;15.60;99.90
54190;DHT22;40340;53.208;6.582;2022-07-15T07:16:31;15.70;99.90
54190;DHT22;40340;53.208;6.582;2022-07-15T07:18:57;15.70;99.90
54190;DHT22;40340;53.208;6.582;2022-07-15T07:21:22;15.70;99.90
54190;DHT22;40340;53.208;6.582;2022-07-15T07:23:48;15.80;99.90
54190;DHT22;40340;53.208;6.582;2022-07-15T07:26:15;15.90;99.90
54190;DHT22;40340;53.208;6.582;2022-07-15T07:28:41;16.00;99.90
54190;DHT22;40340;53.208;6.582;2022-07-15T07:31:12;16.00;99.90
54190;DHT22;40340;53.208;6.582;2022-07-15T07:33:39;16.20;99.90
54190;DHT22;40340;53.208;6.582;2022-07-15T07:36:05;16.50;99.90
54190;DHT22;40340;53.208;6.582;2022-07-15T07:38:32;16.80;99.90
54190;DHT22;40340;53.208;6.582;2022-07-15T07:40:58;16.80;99.90
54190;DHT22;40340;53.208;6.582;2022-07-15T07:43:24;16.60;99.90
54190;DHT22;40340;53.208;6.582;2022-07-15T07:45:49;16.40;99.90
54190;DHT22;40340;53.208;6.582;2022-07-15T07:48:15;16.20;99.90
54190;DHT22;40340;53.208;6.582;2022-07-15T07:50:44;16.10;99.90
54190;DHT22;40340;53.208;6.582;2022-07-15T07:53:10;16.10;99.90
54190;DHT22;40340;53.208;6.582;2022-07-15T07:55:37;16.10;99.90
54190;DHT22;40340;53.208;6.582;2022-07-15T07:58:03;16.10;99.90
54190;DHT22;40340;53.208;6.582;2022-07-15T08:00:29;16.20;99.90
54190;DHT22;40340;53.208;6.582;2022-07-15T08:02:56;16.30;99.90
54190;DHT22;40340;53.208;6.582;2022-07-15T08:05:24;16.40;99.90
54190;DHT22;40340;53.208;6.582;2022-07-15T08:07:49;16.50;99.90
54190;DHT22;40340;53.208;6.582;2022-07-15T08:10:17;16.60;99.90
54190;DHT22;40340;53.208;6.582;2022-07-15T08:12:45;16.70;99.90
54190;DHT22;40340;53.208;6.582;2022-07-15T08:15:11;16.80;99.90
54190;DHT22;40340;53.208;6.582;2022-07-15T08:17:38;17.10;99.90
54190;DHT22;40340;53.208;6.582;2022-07-15T08:20:08;17.00;99.90
54190;DHT22;40340;53.208;6.582;2022-07-15T08:22:35;17.00;99.90
54190;DHT22;40340;53.208;6.582;2022-07-15T08:25:01;16.80;99.90
54190;DHT22;40340;53.208;6.582;2022-07-15T08:27:27;16.80;99.90
54190;DHT22;40340;53.208;6.582;2022-07-15T08:29:52;16.70;99.90
54190;DHT22;40340;53.208;6.582;2022-07-15T08:32:19;16.60;99.90
54190;DHT22;40340;53.208;6.582;2022-07-15T08:34:45;16.50;99.90
54190;DHT22;40340;53.208;6.582;2022-07-15T08:37:13;16.40;99.90
54190;DHT22;40340;53.208;6.582;2022-07-15T08:39:38;16.50;99.90
54190;DHT22;40340;53.208;6.582;2022-07-15T08:42:05;16.60;99.90
54190;DHT22;40340;53.208;6.582;2022-07-15T08:44:31;16.70;99.90
54190;DHT22;40340;53.208;6.582;2022-07-15T08:47:02;16.80;99.90
54190;DHT22;40340;53.208;6.582;2022-07-15T08:49:30;17.00;99.90
54190;DHT22;40340;53.208;6.582;2022-07-15T08:51:58;17.20;99.90
54190;DHT22;40340;53.208;6.582;2022-07-15T08:54:24;17.30;99.90
54190;DHT22;40340;53.208;6.582;2022-07-15T08:56:50;17.40;99.90
54190;DHT22;40340;53.208;6.582;2022-07-15T08:59:16;17.50;99.90
54190;DHT22;40340;53.208;6.582;2022-07-15T09:01:44;17.50;99.90
54190;DHT22;40340;53.208;6.582;2022-07-15T09:04:11;17.40;99.90
54190;DHT22;40340;53.208;6.582;2022-07-15T09:06:42;17.50;99.90
54190;DHT22;40340;53.208;6.582;2022-07-15T09:09:30;17.50;99.90
54190;DHT22;40340;53.208;6.582;2022-07-15T09:14:21;17.70;99.90
54190;DHT22;40340;53.208;6.582;2022-07-15T09:16:47;18.00;99.90
54190;DHT22;40340;53.208;6.582;2022-07-15T09:19:13;18.30;99.90
54190;DHT22;40340;53.208;6.582;2022-07-15T09:21:41;18.40;99.90
54190;DHT22;40340;53.208;6.582;2022-07-15T09:24:18;18.20;99.90
54190;DHT22;40340;53.208;6.582;2022-07-15T09:26:44;18.10;99.90
54190;DHT22;40340;53.208;6.582;2022-07-15T09:29:14;17.90;99.90
54190;DHT22;40340;53.208;6.582;2022-07-15T09:32:00;18.00;99.90
54190;DHT22;40340;53.208;6.582;2022-07-15T09:35:05;18.00;99.90
54190;DHT22;40340;53.208;6.582;2022-07-15T09:37:58;18.10;99.90
54190;DHT22;40340;53.208;6.582;2022-07-15T09:40:25;18.20;99.90
54190;DHT22;40340;53.208;6.582;2022-07-15T09:43:06;18.30;99.90
54190;DHT22;40340;53.208;6.582;2022-07-15T09:45:36;17.90;99.90
54190;DHT22;40340;53.208;6.582;2022-07-15T09:48:09;17.90;99.90
54190;DHT22;40340;53.208;6.582;2022-07-15T09:50:38;17.90;99.90
54190;DHT22;40340;53.208;6.582;2022-07-15T09:53:10;17.90;99.90
54190;DHT22;40340;53.208;6.582;2022-07-15T09:55:36;18.00;99.90
54190;DHT22;40340;53.208;6.582;2022-07-15T09:58:03;18.30;99.90
54190;DHT22;40340;53.208;6.582;2022-07-15T10:00:31;18.50;99.90
54190;DHT22;40340;53.208;6.582;2022-07-15T10:02:57;18.80;99.90
54190;DHT22;40340;53.208;6.582;2022-07-15T10:05:23;18.80;99.90
54190;DHT22;40340;53.208;6.582;2022-07-15T10:07:50;18.80;99.90
54190;DHT22;40340;53.208;6.582;2022-07-15T10:10:20;18.70;99.90
54190;DHT22;40340;53.208;6.582;2022-07-15T10:12:58;18.70;99.90
54190;DHT22;40340;53.208;6.582;2022-07-15T10:15:41;18.60;99.90
54190;DHT22;40340;53.208;6.582;2022-07-15T10:18:53;18.60;99.90
54190;DHT22;40340;53.208;6.582;2022-07-15T10:27:06;18.80;99.90
54190;DHT22;40340;53.208;6.582;2022-07-15T10:29:33;18.90;99.90
54190;DHT22;40340;53.208;6.582;2022-07-15T10:32:00;19.00;99.90
54190;DHT22;40340;53.208;6.582;2022-07-15T10:34:33;19.00;99.90
54190;DHT22;40340;53.208;6.582;2022-07-15T10:37:04;19.10;99.90
54190;DHT22;40340;53.208;6.582;2022-07-15T10:42:18;19.20;99.90
54190;DHT22;40340;53.208;6.582;2022-07-15T10:45:03;19.20;99.90
54190;DHT22;40340;53.208;6.582;2022-07-15T10:47:29;19.10;99.90
54190;DHT22;40340;53.208;6.582;2022-07-15T10:49:55;19.00;99.90
54190;DHT22;40340;53.208;6.582;2022-07-15T10:52:22;19.10;99.90
54190;DHT22;40340;53.208;6.582;2022-07-15T11:05:29;18.60;99.90
54190;DHT22;40340;53.208;6.582;2022-07-15T11:07:55;18.70;99.90
54190;DHT22;40340;53.208;6.582;2022-07-15T11:10:21;18.60;99.90
54190;DHT22;40340;53.208;6.582;2022-07-15T11:15:18;18.60;99.90
54190;DHT22;40340;53.208;6.582;2022-07-15T11:17:49;18.60;99.90
54190;DHT22;40340;53.208;6.582;2022-07-15T11:20:28;18.60;99.90
54190;DHT22;40340;53.208;6.582;2022-07-15T11:22:57;18.60;99.90
54190;DHT22;40340;53.208;6.582;2022-07-15T11:25:30;18.60;99.90
54190;DHT22;40340;53.208;6.582;2022-07-15T11:28:11;18.70;99.90
54190;DHT22;40340;53.208;6.582;2022-07-15T11:30:43;18.70;99.90
54190;DHT22;40340;53.208;6.582;2022-07-15T11:33:14;18.80;99.90
54190;DHT22;40340;53.208;6.582;2022-07-15T11:35:51;18.80;99.90
54190;DHT22;40340;53.208;6.582;2022-07-15T11:38:23;18.80;99.90
54190;DHT22;40340;53.208;6.582;2022-07-15T11:40:51;18.90;99.90
54190;DHT22;40340;53.208;6.582;2022-07-15T11:43:36;19.00;99.90
54190;DHT22;40340;53.208;6.582;2022-07-15T11:46:21;19.20;99.90
54190;DHT22;40340;53.208;6.582;2022-07-15T11:48:49;19.30;99.90
54190;DHT22;40340;53.208;6.582;2022-07-15T11:51:15;19.40;99.90
54190;DHT22;40340;53.208;6.582;2022-07-15T11:53:45;19.30;99.90
54190;DHT22;40340;53.208;6.582;2022-07-15T11:56:13;19.30;99.90
54190;DHT22;40340;53.208;6.582;2022-07-15T11:58:42;19.40;99.90
54190;DHT22;40340;53.208;6.582;2022-07-15T12:01:11;19.60;99.90
54190;DHT22;40340;53.208;6.582;2022-07-15T12:03:42;20.10;99.90
54190;DHT22;40340;53.208;6.582;2022-07-15T12:06:24;20.60;99.90
54190;DHT22;40340;53.208;6.582;2022-07-15T12:08:55;20.60;99.90
54190;DHT22;40340;53.208;6.582;2022-07-15T12:11:29;20.40;99.90
54190;DHT22;40340;53.208;6.582;2022-07-15T12:14:11;20.30;99.90
54190;DHT22;40340;53.208;6.582;2022-07-15T12:16:43;20.10;99.90
54190;DHT22;40340;53.208;6.582;2022-07-15T12:19:14;19.70;99.90
54190;DHT22;40340;53.208;6.582;2022-07-15T12:21:42;19.50;99.90
54190;DHT22;40340;53.208;6.582;2022-07-15T12:24:12;19.30;99.90
54190;DHT22;40340;53.208;6.582;2022-07-15T12:26:41;19.10;99.90
54190;DHT22;40340;53.208;6.582;2022-07-15T12:29:09;19.10;99.90
54190;DHT22;40340;53.208;6.582;2022-07-15T12:31:36;19.00;99.90
54190;DHT22;40340;53.208;6.582;2022-07-15T12:34:03;19.00;99.90
54190;DHT22;40340;53.208;6.582;2022-07-15T12:36:31;19.00;99.90
54190;DHT22;40340;53.208;6.582;2022-07-15T12:39:09;18.90;99.90
54190;DHT22;40340;53.208;6.582;2022-07-15T12:41:37;18.80;99.90
54190;DHT22;40340;53.208;6.582;2022-07-15T12:44:03;18.80;99.90
54190;DHT22;40340;53.208;6.582;2022-07-15T12:46:48;18.80;99.90
54190;DHT22;40340;53.208;6.582;2022-07-15T12:49:51;18.80;99.90
54190;DHT22;40340;53.208;6.582;2022-07-15T12:54:53;18.80;99.90
54190;DHT22;40340;53.208;6.582;2022-07-15T12:59:55;18.80;99.90
54190;DHT22;40340;53.208;6.582;2022-07-15T13:02:22;18.80;99.90
54190;DHT22;40340;53.208;6.582;2022-07-15T13:04:48;18.90;99.90
54190;DHT22;40340;53.208;6.582;2022-07-15T13:07:15;18.90;99.90
54190;DHT22;40340;53.208;6.582;2022-07-15T13:09:42;18.90;99.90
54190;DHT22;40340;53.208;6.582;2022-07-15T13:12:08;19.00;99.90
54190;DHT22;40340;53.208;6.582;2022-07-15T13:14:38;19.00;99.90
54190;DHT22;40340;53.208;6.582;2022-07-15T13:17:05;18.90;99.90
54190;DHT22;40340;53.208;6.582;2022-07-15T13:19:32;19.00;99.90
54190;DHT22;40340;53.208;6.582;2022-07-15T13:22:01;18.90;99.90
54190;DHT22;40340;53.208;6.582;2022-07-15T13:24:27;18.90;99.90
54190;DHT22;40340;53.208;6.582;2022-07-15T13:26:53;18.90;99.90
54190;DHT22;40340;53.208;6.582;2022-07-15T13:29:19;19.00;99.90
54190;DHT22;40340;53.208;6.582;2022-07-15T13:31:45;18.90;99.90
54190;DHT22;40340;53.208;6.582;2022-07-15T13:34:10;18.80;99.90
54190;DHT22;40340;53.208;6.582;2022-07-15T13:36:36;18.90;99.90
54190;DHT22;40340;53.208;6.582;2022-07-15T13:39:03;19.00;99.90
54190;DHT22;40340;53.208;6.582;2022-07-15T13:41:29;19.00;99.90
54190;DHT22;40340;53.208;6.582;2022-07-15T13:43:54;19.00;99.90
54190;DHT22;40340;53.208;6.582;2022-07-15T13:46:20;19.20;99.90
54190;DHT22;40340;53.208;6.582;2022-07-15T13:48:46;19.30;99.90
54190;DHT22;40340;53.208;6.582;2022-07-15T13:51:11;19.20;99.90
54190;DHT22;40340;53.208;6.582;2022-07-15T13:53:50;19.10;99.90
54190;DHT22;40340;53.208;6.582;2022-07-15T13:56:16;19.20;99.90
54190;DHT22;40340;53.208;6.582;2022-07-15T13:58:42;19.40;99.90
54190;DHT22;40340;53.208;6.582;2022-07-15T14:01:08;19.60;99.90
54190;DHT22;40340;53.208;6.582;2022-07-15T14:03:33;19.70;99.90
54190;DHT22;40340;53.208;6.582;2022-07-15T14:05:59;19.90;99.90
54190;DHT22;40340;53.208;6.582;2022-07-15T14:08:25;19.80;99.90
54190;DHT22;40340;53.208;6.582;2022-07-15T14:10:51;19.80;99.90
54190;DHT22;40340;53.208;6.582;2022-07-15T14:13:16;19.70;99.90
54190;DHT22;40340;53.208;6.582;2022-07-15T14:15:42;19.60;99.90
54190;DHT22;40340;53.208;6.582;2022-07-15T14:18:08;19.70;99.90
54190;DHT22;40340;53.208;6.582;2022-07-15T14:20:34;19.60;99.90
54190;DHT22;40340;53.208;6.582;2022-07-15T14:23:00;19.60;99.90
54190;DHT22;40340;53.208;6.582;2022-07-15T14:25:26;19.50;99.90
54190;DHT22;40340;53.208;6.582;2022-07-15T14:27:51;19.40;99.90
54190;DHT22;40340;53.208;6.582;2022-07-15T14:30:17;19.40;99.90
54190;DHT22;40340;53.208;6.582;2022-07-15T14:32:43;19.40;99.90
54190;DHT22;40340;53.208;6.582;2022-07-15T14:35:09;19.40;99.90
54190;DHT22;40340;53.208;6.582;2022-07-15T14:37:35;19.40;99.90
54190;DHT22;40340;53.208;6.582;2022-07-15T14:40:02;19.50;99.90
54190;DHT22;40340;53.208;6.582;2022-07-15T14:42:28;19.50;99.90
54190;DHT22;40340;53.208;6.582;2022-07-15T14:44:54;19.50;99.90
54190;DHT22;40340;53.208;6.582;2022-07-15T14:47:19;19.60;99.90
54190;DHT22;40340;53.208;6.582;2022-07-15T14:49:45;19.70;99.90
54190;DHT22;40340;53.208;6.582;2022-07-15T14:52:10;19.80;99.90
54190;DHT22;40340;53.208;6.582;2022-07-15T14:54:36;19.70;99.90
54190;DHT22;40340;53.208;6.582;2022-07-15T14:57:01;19.90;99.90
54190;DHT22;40340;53.208;6.582;2022-07-15T14:59:27;19.90;99.90
54190;DHT22;40340;53.208;6.582;2022-07-15T15:01:53;19.90;99.90
54190;DHT22;40340;53.208;6.582;2022-07-15T15:04:21;20.00;99.90
54190;DHT22;40340;53.208;6.582;2022-07-15T15:06:48;19.90;99.90
54190;DHT22;40340;53.208;6.582;2022-07-15T15:09:14;19.80;99.90
54190;DHT22;40340;53.208;6.582;2022-07-15T15:11:39;19.80;99.90
54190;DHT22;40340;53.208;6.582;2022-07-15T15:14:05;19.90;99.90
54190;DHT22;40340;53.208;6.582;2022-07-15T15:16:31;19.90;99.90
54190;DHT22;40340;53.208;6.582;2022-07-15T15:18:56;19.90;99.90
54190;DHT22;40340;53.208;6.582;2022-07-15T15:21:22;20.00;99.90
54190;DHT22;40340;53.208;6.582;2022-07-15T15:23:48;20.00;99.90
54190;DHT22;40340;53.208;6.582;2022-07-15T15:26:14;20.00;99.90
54190;DHT22;40340;53.208;6.582;2022-07-15T15:28:47;20.00;99.90
54190;DHT22;40340;53.208;6.582;2022-07-15T15:31:13;19.90;99.90
54190;DHT22;40340;53.208;6.582;2022-07-15T15:33:38;20.00;99.90
54190;DHT22;40340;53.208;6.582;2022-07-15T15:36:04;20.10;99.90
54190;DHT22;40340;53.208;6.582;2022-07-15T15:38:30;20.10;99.90
54190;DHT22;40340;53.208;6.582;2022-07-15T15:40:56;20.20;99.90
54190;DHT22;40340;53.208;6.582;2022-07-15T15:43:22;20.20;99.90
54190;DHT22;40340;53.208;6.582;2022-07-15T15:45:48;20.40;99.90
54190;DHT22;40340;53.208;6.582;2022-07-15T15:48:14;20.30;99.90
54190;DHT22;40340;53.208;6.582;2022-07-15T15:50:39;20.30;99.90
54190;DHT22;40340;53.208;6.582;2022-07-15T15:53:05;20.30;99.90
54190;DHT22;40340;53.208;6.582;2022-07-15T15:55:30;20.30;99.90
54190;DHT22;40340;53.208;6.582;2022-07-15T15:57:56;20.40;99.90
54190;DHT22;40340;53.208;6.582;2022-07-15T16:00:22;20.40;99.90
54190;DHT22;40340;53.208;6.582;2022-07-15T16:02:47;20.30;99.90